sensor_id;sensor_type;location;lat;lon;timestamp;P1;durP1;ratioP1;P2;durP2;ratioP2
47287;SDS011;33020;53.008;13.558;2023-04-15T00:01:09;49.03;;;26.37;;
47287;SDS011;33020;53.008;13.558;2023-04-15T00:03:37;49.60;;;26.20;;
47287;SDS011;33020;53.008;13.558;2023-04-15T00:06:04;54.60;;;26.50;;
47287;SDS011;33020;53.008;13.558;2023-04-15T00:08:31;55.80;;;27.57;;
47287;SDS011;33020;53.008;13.558;2023-04-15T00:10:58;52.13;;;27.57;;
47287;SDS011;33020;53.008;13.558;2023-04-15T00:13:31;58.20;;;26.73;;
47287;SDS011;33020;53.008;13.558;2023-04-15T00:15:59;55.60;;;28.93;;
47287;SDS011;33020;53.008;13.558;2023-04-15T00:18:29;52.17;;;27.20;;
47287;SDS011;33020;53.008;13.558;2023-04-15T00:20:57;49.30;;;27.20;;
47287;SDS011;33020;53.008;13.558;2023-04-15T00:23:24;50.50;;;26.90;;
47287;SDS011;33020;53.008;13.558;2023-04-15T00:25:51;56.73;;;29.67;;
47287;SDS011;33020;53.008;13.558;2023-04-15T00:28:18;49.40;;;24.63;;
47287;SDS011;33020;53.008;13.558;2023-04-15T00:30:46;46.73;;;26.23;;
47287;SDS011;33020;53.008;13.558;2023-04-15T00:33:13;56.83;;;27.93;;
47287;SDS011;33020;53.008;13.558;2023-04-15T00:35:41;51.63;;;26.90;;
47287;SDS011;33020;53.008;13.558;2023-04-15T00:38:08;54.13;;;28.57;;
47287;SDS011;33020;53.008;13.558;2023-04-15T00:40:35;48.63;;;27.63;;
47287;SDS011;33020;53.008;13.558;2023-04-15T00:43:01;49.80;;;26.83;;
47287;SDS011;33020;53.008;13.558;2023-04-15T00:45:29;49.40;;;25.33;;
47287;SDS011;33020;53.008;13.558;2023-04-15T00:47:56;43.63;;;25.47;;
47287;SDS011;33020;53.008;13.558;2023-04-15T00:50:23;49.30;;;27.47;;
47287;SDS011;33020;53.008;13.558;2023-04-15T00:52:51;51.33;;;25.20;;
47287;SDS011;33020;53.008;13.558;2023-04-15T00:55:17;55.67;;;27.47;;
47287;SDS011;33020;53.008;13.558;2023-04-15T00:57:44;46.10;;;24.50;;
47287;SDS011;33020;53.008;13.558;2023-04-15T01:00:11;46.93;;;25.57;;
47287;SDS011;33020;53.008;13.558;2023-04-15T01:02:38;52.77;;;27.67;;
47287;SDS011;33020;53.008;13.558;2023-04-15T01:05:05;48.10;;;26.33;;
47287;SDS011;33020;53.008;13.558;2023-04-15T01:07:33;50.53;;;25.33;;
47287;SDS011;33020;53.008;13.558;2023-04-15T01:09:59;49.60;;;27.37;;
47287;SDS011;33020;53.008;13.558;2023-04-15T01:12:26;49.43;;;26.07;;
47287;SDS011;33020;53.008;13.558;2023-04-15T01:14:54;51.77;;;26.50;;
47287;SDS011;33020;53.008;13.558;2023-04-15T01:17:21;45.67;;;24.53;;
47287;SDS011;33020;53.008;13.558;2023-04-15T01:19:50;46.57;;;25.60;;
47287;SDS011;33020;53.008;13.558;2023-04-15T01:22:17;45.07;;;23.77;;
47287;SDS011;33020;53.008;13.558;2023-04-15T01:24:50;49.40;;;25.70;;
47287;SDS011;33020;53.008;13.558;2023-04-15T01:27:22;50.03;;;26.23;;
47287;SDS011;33020;53.008;13.558;2023-04-15T01:29:49;50.43;;;25.00;;
47287;SDS011;33020;53.008;13.558;2023-04-15T01:32:15;46.20;;;26.60;;
47287;SDS011;33020;53.008;13.558;2023-04-15T01:34:42;54.60;;;26.50;;
47287;SDS011;33020;53.008;13.558;2023-04-15T01:37:12;53.20;;;27.67;;
47287;SDS011;33020;53.008;13.558;2023-04-15T01:39:39;46.80;;;26.03;;
47287;SDS011;33020;53.008;13.558;2023-04-15T01:42:06;48.17;;;25.47;;
47287;SDS011;33020;53.008;13.558;2023-04-15T01:44:33;46.57;;;25.00;;
47287;SDS011;33020;53.008;13.558;2023-04-15T01:46:59;47.67;;;25.90;;
47287;SDS011;33020;53.008;13.558;2023-04-15T01:49:26;45.10;;;25.80;;
47287;SDS011;33020;53.008;13.558;2023-04-15T01:51:53;48.90;;;27.37;;
47287;SDS011;33020;53.008;13.558;2023-04-15T01:54:20;51.27;;;25.47;;
47287;SDS011;33020;53.008;13.558;2023-04-15T01:56:46;45.73;;;26.67;;
47287;SDS011;33020;53.008;13.558;2023-04-15T01:59:13;49.80;;;24.43;;
47287;SDS011;33020;53.008;13.558;2023-04-15T02:01:40;46.00;;;24.33;;
47287;SDS011;33020;53.008;13.558;2023-04-15T02:04:07;53.30;;;26.40;;
47287;SDS011;33020;53.008;13.558;2023-04-15T02:06:42;48.07;;;25.73;;
47287;SDS011;33020;53.008;13.558;2023-04-15T02:09:09;46.83;;;26.40;;
47287;SDS011;33020;53.008;13.558;2023-04-15T02:11:36;46.60;;;24.47;;
47287;SDS011;33020;53.008;13.558;2023-04-15T02:14:02;47.80;;;25.37;;
47287;SDS011;33020;53.008;13.558;2023-04-15T02:16:31;50.33;;;25.53;;
47287;SDS011;33020;53.008;13.558;2023-04-15T02:18:59;47.60;;;25.33;;
47287;SDS011;33020;53.008;13.558;2023-04-15T02:21:26;50.50;;;26.60;;
47287;SDS011;33020;53.008;13.558;2023-04-15T02:23:52;51.60;;;27.57;;
47287;SDS011;33020;53.008;13.558;2023-04-15T02:26:19;49.73;;;24.93;;
47287;SDS011;33020;53.008;13.558;2023-04-15T02:28:46;54.00;;;26.90;;
47287;SDS011;33020;53.008;13.558;2023-04-15T02:31:13;45.10;;;23.30;;
47287;SDS011;33020;53.008;13.558;2023-04-15T02:33:40;53.00;;;28.10;;
47287;SDS011;33020;53.008;13.558;2023-04-15T02:36:07;41.90;;;24.37;;
47287;SDS011;33020;53.008;13.558;2023-04-15T02:38:34;49.53;;;25.03;;
47287;SDS011;33020;53.008;13.558;2023-04-15T02:41:01;47.53;;;26.20;;
47287;SDS011;33020;53.008;13.558;2023-04-15T02:43:28;46.57;;;25.77;;
47287;SDS011;33020;53.008;13.558;2023-04-15T02:45:55;50.43;;;26.43;;
47287;SDS011;33020;53.008;13.558;2023-04-15T02:48:22;44.70;;;24.40;;
47287;SDS011;33020;53.008;13.558;2023-04-15T02:50:49;40.03;;;22.80;;
47287;SDS011;33020;53.008;13.558;2023-04-15T02:53:16;41.83;;;22.77;;
47287;SDS011;33020;53.008;13.558;2023-04-15T02:55:42;46.73;;;23.53;;
47287;SDS011;33020;53.008;13.558;2023-04-15T02:58:09;42.17;;;23.80;;
47287;SDS011;33020;53.008;13.558;2023-04-15T03:00:37;41.47;;;23.43;;
47287;SDS011;33020;53.008;13.558;2023-04-15T03:03:04;46.40;;;24.50;;
47287;SDS011;33020;53.008;13.558;2023-04-15T03:05:32;44.00;;;24.27;;
47287;SDS011;33020;53.008;13.558;2023-04-15T03:07:59;38.57;;;22.97;;
47287;SDS011;33020;53.008;13.558;2023-04-15T03:10:31;43.37;;;23.83;;
47287;SDS011;33020;53.008;13.558;2023-04-15T03:12:57;44.73;;;24.30;;
47287;SDS011;33020;53.008;13.558;2023-04-15T03:15:24;42.80;;;22.83;;
47287;SDS011;33020;53.008;13.558;2023-04-15T03:17:51;42.20;;;23.37;;
47287;SDS011;33020;53.008;13.558;2023-04-15T03:20:18;46.33;;;23.90;;
47287;SDS011;33020;53.008;13.558;2023-04-15T03:22:45;42.43;;;21.87;;
47287;SDS011;33020;53.008;13.558;2023-04-15T03:25:12;42.13;;;23.27;;
47287;SDS011;33020;53.008;13.558;2023-04-15T03:27:38;45.20;;;23.80;;
47287;SDS011;33020;53.008;13.558;2023-04-15T03:30:05;39.97;;;22.57;;
47287;SDS011;33020;53.008;13.558;2023-04-15T03:32:33;47.77;;;25.37;;
47287;SDS011;33020;53.008;13.558;2023-04-15T03:35:00;38.27;;;21.73;;
47287;SDS011;33020;53.008;13.558;2023-04-15T03:37:26;40.77;;;22.57;;
47287;SDS011;33020;53.008;13.558;2023-04-15T03:39:53;43.23;;;23.23;;
47287;SDS011;33020;53.008;13.558;2023-04-15T03:42:20;46.13;;;23.30;;
47287;SDS011;33020;53.008;13.558;2023-04-15T03:44:46;41.47;;;21.80;;
47287;SDS011;33020;53.008;13.558;2023-04-15T03:47:13;39.63;;;21.43;;
47287;SDS011;33020;53.008;13.558;2023-04-15T03:49:39;40.00;;;22.50;;
47287;SDS011;33020;53.008;13.558;2023-04-15T03:52:06;38.73;;;22.40;;
47287;SDS011;33020;53.008;13.558;2023-04-15T03:54:33;39.27;;;22.00;;
47287;SDS011;33020;53.008;13.558;2023-04-15T03:57:00;39.00;;;22.07;;
47287;SDS011;33020;53.008;13.558;2023-04-15T03:59:27;39.23;;;21.70;;
47287;SDS011;33020;53.008;13.558;2023-04-15T04:01:53;36.23;;;20.13;;
47287;SDS011;33020;53.008;13.558;2023-04-15T04:04:20;43.07;;;23.13;;
47287;SDS011;33020;53.008;13.558;2023-04-15T04:06:47;37.43;;;22.13;;
47287;SDS011;33020;53.008;13.558;2023-04-15T04:09:14;35.80;;;21.07;;
47287;SDS011;33020;53.008;13.558;2023-04-15T04:11:41;35.47;;;20.97;;
47287;SDS011;33020;53.008;13.558;2023-04-15T04:14:08;33.50;;;21.17;;
47287;SDS011;33020;53.008;13.558;2023-04-15T04:16:34;37.17;;;21.30;;
47287;SDS011;33020;53.008;13.558;2023-04-15T04:19:01;40.83;;;23.43;;
47287;SDS011;33020;53.008;13.558;2023-04-15T04:21:28;34.27;;;21.67;;
47287;SDS011;33020;53.008;13.558;2023-04-15T04:23:56;33.77;;;19.90;;
47287;SDS011;33020;53.008;13.558;2023-04-15T04:26:22;36.97;;;19.90;;
47287;SDS011;33020;53.008;13.558;2023-04-15T04:28:49;37.40;;;21.67;;
47287;SDS011;33020;53.008;13.558;2023-04-15T04:31:16;36.47;;;21.30;;
47287;SDS011;33020;53.008;13.558;2023-04-15T04:33:42;32.30;;;20.40;;
47287;SDS011;33020;53.008;13.558;2023-04-15T04:36:09;37.43;;;21.57;;
47287;SDS011;33020;53.008;13.558;2023-04-15T04:38:36;35.63;;;21.87;;
47287;SDS011;33020;53.008;13.558;2023-04-15T04:41:03;34.70;;;20.23;;
47287;SDS011;33020;53.008;13.558;2023-04-15T04:43:29;36.50;;;21.00;;
47287;SDS011;33020;53.008;13.558;2023-04-15T04:45:56;33.47;;;19.43;;
47287;SDS011;33020;53.008;13.558;2023-04-15T04:48:23;34.73;;;19.73;;
47287;SDS011;33020;53.008;13.558;2023-04-15T04:50:49;34.63;;;20.50;;
47287;SDS011;33020;53.008;13.558;2023-04-15T04:53:16;32.30;;;19.67;;
47287;SDS011;33020;53.008;13.558;2023-04-15T04:55:43;38.13;;;20.53;;
47287;SDS011;33020;53.008;13.558;2023-04-15T04:58:10;35.67;;;20.43;;
47287;SDS011;33020;53.008;13.558;2023-04-15T05:00:37;33.23;;;20.00;;
47287;SDS011;33020;53.008;13.558;2023-04-15T05:03:07;30.03;;;18.37;;
47287;SDS011;33020;53.008;13.558;2023-04-15T05:05:36;30.90;;;19.43;;
47287;SDS011;33020;53.008;13.558;2023-04-15T05:08:04;31.47;;;19.20;;
47287;SDS011;33020;53.008;13.558;2023-04-15T05:10:31;31.60;;;19.43;;
47287;SDS011;33020;53.008;13.558;2023-04-15T05:12:58;34.10;;;20.40;;
47287;SDS011;33020;53.008;13.558;2023-04-15T05:15:25;28.00;;;17.70;;
47287;SDS011;33020;53.008;13.558;2023-04-15T05:17:55;28.67;;;18.23;;
47287;SDS011;33020;53.008;13.558;2023-04-15T05:20:27;28.93;;;18.80;;
47287;SDS011;33020;53.008;13.558;2023-04-15T05:22:54;29.43;;;19.37;;
47287;SDS011;33020;53.008;13.558;2023-04-15T05:25:21;32.03;;;19.50;;
47287;SDS011;33020;53.008;13.558;2023-04-15T05:27:48;30.93;;;19.30;;
47287;SDS011;33020;53.008;13.558;2023-04-15T05:30:15;29.67;;;18.60;;
47287;SDS011;33020;53.008;13.558;2023-04-15T05:32:42;29.20;;;18.20;;
47287;SDS011;33020;53.008;13.558;2023-04-15T05:35:09;27.43;;;18.03;;
47287;SDS011;33020;53.008;13.558;2023-04-15T05:37:35;32.30;;;19.07;;
47287;SDS011;33020;53.008;13.558;2023-04-15T05:40:02;27.67;;;17.77;;
47287;SDS011;33020;53.008;13.558;2023-04-15T05:42:29;24.47;;;16.97;;
47287;SDS011;33020;53.008;13.558;2023-04-15T05:44:56;26.20;;;16.80;;
47287;SDS011;33020;53.008;13.558;2023-04-15T05:47:23;27.80;;;17.97;;
47287;SDS011;33020;53.008;13.558;2023-04-15T05:49:50;24.17;;;16.13;;
47287;SDS011;33020;53.008;13.558;2023-04-15T05:52:17;27.60;;;17.67;;
47287;SDS011;33020;53.008;13.558;2023-04-15T05:54:43;26.60;;;17.30;;
47287;SDS011;33020;53.008;13.558;2023-04-15T05:57:10;26.27;;;16.90;;
47287;SDS011;33020;53.008;13.558;2023-04-15T05:59:37;29.20;;;18.07;;
47287;SDS011;33020;53.008;13.558;2023-04-15T06:02:04;25.27;;;16.30;;
47287;SDS011;33020;53.008;13.558;2023-04-15T06:04:31;25.87;;;16.33;;
47287;SDS011;33020;53.008;13.558;2023-04-15T06:06:58;23.50;;;16.00;;
47287;SDS011;33020;53.008;13.558;2023-04-15T06:09:25;24.20;;;15.93;;
47287;SDS011;33020;53.008;13.558;2023-04-15T06:11:52;23.17;;;15.43;;
47287;SDS011;33020;53.008;13.558;2023-04-15T06:14:19;23.23;;;14.83;;
47287;SDS011;33020;53.008;13.558;2023-04-15T06:16:46;22.43;;;14.87;;
47287;SDS011;33020;53.008;13.558;2023-04-15T06:19:12;25.10;;;16.00;;
47287;SDS011;33020;53.008;13.558;2023-04-15T06:21:40;23.42;;;15.02;;
47287;SDS011;33020;53.008;13.558;2023-04-15T06:24:07;21.57;;;14.90;;
47287;SDS011;33020;53.008;13.558;2023-04-15T06:26:34;18.88;;;13.27;;
47287;SDS011;33020;53.008;13.558;2023-04-15T06:29:00;18.70;;;14.43;;
47287;SDS011;33020;53.008;13.558;2023-04-15T06:31:27;18.15;;;12.35;;
47287;SDS011;33020;53.008;13.558;2023-04-15T06:33:54;17.08;;;11.88;;
47287;SDS011;33020;53.008;13.558;2023-04-15T06:36:21;14.73;;;11.68;;
47287;SDS011;33020;53.008;13.558;2023-04-15T06:38:48;16.70;;;11.73;;
47287;SDS011;33020;53.008;13.558;2023-04-15T06:41:14;16.65;;;12.63;;
47287;SDS011;33020;53.008;13.558;2023-04-15T06:43:41;15.93;;;11.40;;
47287;SDS011;33020;53.008;13.558;2023-04-15T06:46:08;17.05;;;11.45;;
47287;SDS011;33020;53.008;13.558;2023-04-15T06:48:35;16.58;;;12.20;;
47287;SDS011;33020;53.008;13.558;2023-04-15T06:51:02;16.90;;;11.68;;
47287;SDS011;33020;53.008;13.558;2023-04-15T06:53:29;15.80;;;11.60;;
47287;SDS011;33020;53.008;13.558;2023-04-15T06:55:56;16.17;;;11.13;;
47287;SDS011;33020;53.008;13.558;2023-04-15T06:58:22;14.35;;;10.75;;
47287;SDS011;33020;53.008;13.558;2023-04-15T07:00:49;16.77;;;12.63;;
47287;SDS011;33020;53.008;13.558;2023-04-15T07:03:16;92.85;;;64.53;;
47287;SDS011;33020;53.008;13.558;2023-04-15T07:05:43;19.40;;;13.30;;
47287;SDS011;33020;53.008;13.558;2023-04-15T07:08:10;16.95;;;12.88;;
47287;SDS011;33020;53.008;13.558;2023-04-15T07:10:36;18.35;;;13.60;;
47287;SDS011;33020;53.008;13.558;2023-04-15T07:13:03;14.43;;;11.57;;
47287;SDS011;33020;53.008;13.558;2023-04-15T07:15:31;16.70;;;11.93;;
47287;SDS011;33020;53.008;13.558;2023-04-15T07:17:57;16.63;;;12.60;;
47287;SDS011;33020;53.008;13.558;2023-04-15T07:20:24;16.65;;;12.40;;
47287;SDS011;33020;53.008;13.558;2023-04-15T07:22:51;15.57;;;11.77;;
47287;SDS011;33020;53.008;13.558;2023-04-15T07:25:18;18.33;;;12.25;;
47287;SDS011;33020;53.008;13.558;2023-04-15T07:27:45;15.90;;;12.15;;
47287;SDS011;33020;53.008;13.558;2023-04-15T07:30:12;17.40;;;12.88;;
47287;SDS011;33020;53.008;13.558;2023-04-15T07:32:39;16.05;;;12.82;;
47287;SDS011;33020;53.008;13.558;2023-04-15T07:35:06;16.80;;;12.23;;
47287;SDS011;33020;53.008;13.558;2023-04-15T07:37:34;16.00;;;12.55;;
47287;SDS011;33020;53.008;13.558;2023-04-15T07:40:01;16.08;;;12.05;;
47287;SDS011;33020;53.008;13.558;2023-04-15T07:42:27;17.63;;;13.13;;
47287;SDS011;33020;53.008;13.558;2023-04-15T07:44:54;20.35;;;14.40;;
47287;SDS011;33020;53.008;13.558;2023-04-15T07:47:22;18.73;;;13.50;;
47287;SDS011;33020;53.008;13.558;2023-04-15T07:49:48;13.88;;;11.13;;
47287;SDS011;33020;53.008;13.558;2023-04-15T07:52:16;17.27;;;12.85;;
47287;SDS011;33020;53.008;13.558;2023-04-15T07:54:44;16.77;;;13.00;;
47287;SDS011;33020;53.008;13.558;2023-04-15T07:57:10;18.98;;;13.68;;
47287;SDS011;33020;53.008;13.558;2023-04-15T07:59:37;16.08;;;12.75;;
47287;SDS011;33020;53.008;13.558;2023-04-15T08:02:04;15.57;;;12.95;;
47287;SDS011;33020;53.008;13.558;2023-04-15T08:04:30;17.10;;;12.85;;
47287;SDS011;33020;53.008;13.558;2023-04-15T08:06:57;17.73;;;12.95;;
47287;SDS011;33020;53.008;13.558;2023-04-15T08:09:25;16.80;;;12.80;;
47287;SDS011;33020;53.008;13.558;2023-04-15T08:11:52;16.30;;;13.57;;
47287;SDS011;33020;53.008;13.558;2023-04-15T08:14:19;17.27;;;12.88;;
47287;SDS011;33020;53.008;13.558;2023-04-15T08:19:18;16.38;;;12.90;;
47287;SDS011;33020;53.008;13.558;2023-04-15T08:21:45;17.48;;;13.18;;
47287;SDS011;33020;53.008;13.558;2023-04-15T08:24:12;19.70;;;14.77;;
47287;SDS011;33020;53.008;13.558;2023-04-15T08:26:39;16.30;;;13.45;;
47287;SDS011;33020;53.008;13.558;2023-04-15T08:29:07;15.52;;;13.23;;
47287;SDS011;33020;53.008;13.558;2023-04-15T08:31:34;16.27;;;12.60;;
47287;SDS011;33020;53.008;13.558;2023-04-15T08:34:01;19.55;;;13.82;;
47287;SDS011;33020;53.008;13.558;2023-04-15T08:36:28;19.92;;;13.75;;
47287;SDS011;33020;53.008;13.558;2023-04-15T08:38:54;17.75;;;14.25;;
47287;SDS011;33020;53.008;13.558;2023-04-15T08:41:22;19.50;;;14.82;;
47287;SDS011;33020;53.008;13.558;2023-04-15T08:43:51;19.58;;;13.88;;
47287;SDS011;33020;53.008;13.558;2023-04-15T08:46:26;17.60;;;14.15;;
47287;SDS011;33020;53.008;13.558;2023-04-15T08:48:55;20.27;;;15.20;;
47287;SDS011;33020;53.008;13.558;2023-04-15T08:51:23;18.50;;;14.52;;
47287;SDS011;33020;53.008;13.558;2023-04-15T08:53:50;20.60;;;15.02;;
47287;SDS011;33020;53.008;13.558;2023-04-15T08:56:18;19.30;;;15.07;;
47287;SDS011;33020;53.008;13.558;2023-04-15T08:58:50;20.38;;;14.95;;
47287;SDS011;33020;53.008;13.558;2023-04-15T09:01:17;20.92;;;14.57;;
47287;SDS011;33020;53.008;13.558;2023-04-15T09:03:44;21.65;;;16.52;;
47287;SDS011;33020;53.008;13.558;2023-04-15T09:06:15;19.58;;;14.95;;
47287;SDS011;33020;53.008;13.558;2023-04-15T09:08:43;18.08;;;14.50;;
47287;SDS011;33020;53.008;13.558;2023-04-15T09:11:10;19.88;;;14.43;;
47287;SDS011;33020;53.008;13.558;2023-04-15T09:13:37;20.02;;;15.27;;
47287;SDS011;33020;53.008;13.558;2023-04-15T09:16:04;19.35;;;15.18;;
47287;SDS011;33020;53.008;13.558;2023-04-15T09:18:32;19.67;;;14.80;;
47287;SDS011;33020;53.008;13.558;2023-04-15T09:21:06;16.80;;;14.20;;
47287;SDS011;33020;53.008;13.558;2023-04-15T09:23:38;30.70;;;19.05;;
47287;SDS011;33020;53.008;13.558;2023-04-15T09:26:35;20.45;;;14.88;;
47287;SDS011;33020;53.008;13.558;2023-04-15T09:29:06;17.85;;;14.25;;
47287;SDS011;33020;53.008;13.558;2023-04-15T09:31:35;17.10;;;13.30;;
47287;SDS011;33020;53.008;13.558;2023-04-15T09:34:03;18.23;;;13.02;;
47287;SDS011;33020;53.008;13.558;2023-04-15T09:36:37;18.80;;;14.52;;
47287;SDS011;33020;53.008;13.558;2023-04-15T09:39:07;17.75;;;13.63;;
47287;SDS011;33020;53.008;13.558;2023-04-15T09:41:33;16.27;;;13.82;;
47287;SDS011;33020;53.008;13.558;2023-04-15T09:44:00;16.45;;;12.38;;
47287;SDS011;33020;53.008;13.558;2023-04-15T09:46:43;17.50;;;13.45;;
47287;SDS011;33020;53.008;13.558;2023-04-15T09:49:11;15.38;;;12.88;;
47287;SDS011;33020;53.008;13.558;2023-04-15T09:51:38;16.88;;;12.75;;
47287;SDS011;33020;53.008;13.558;2023-04-15T09:54:05;17.20;;;12.77;;
47287;SDS011;33020;53.008;13.558;2023-04-15T09:56:36;17.17;;;14.20;;
47287;SDS011;33020;53.008;13.558;2023-04-15T10:01:33;18.25;;;12.90;;
47287;SDS011;33020;53.008;13.558;2023-04-15T10:04:04;17.98;;;13.77;;
47287;SDS011;33020;53.008;13.558;2023-04-15T10:06:32;16.50;;;12.32;;
47287;SDS011;33020;53.008;13.558;2023-04-15T10:08:59;15.85;;;11.80;;
47287;SDS011;33020;53.008;13.558;2023-04-15T10:11:29;20.02;;;13.85;;
47287;SDS011;33020;53.008;13.558;2023-04-15T10:13:57;17.83;;;13.27;;
47287;SDS011;33020;53.008;13.558;2023-04-15T10:16:26;14.77;;;12.55;;
47287;SDS011;33020;53.008;13.558;2023-04-15T10:18:54;19.48;;;15.23;;
47287;SDS011;33020;53.008;13.558;2023-04-15T10:21:21;18.85;;;14.00;;
47287;SDS011;33020;53.008;13.558;2023-04-15T10:23:49;16.83;;;12.75;;
47287;SDS011;33020;53.008;13.558;2023-04-15T10:26:16;17.95;;;13.45;;
47287;SDS011;33020;53.008;13.558;2023-04-15T10:28:43;20.17;;;14.30;;
47287;SDS011;33020;53.008;13.558;2023-04-15T10:31:12;20.45;;;15.13;;
47287;SDS011;33020;53.008;13.558;2023-04-15T10:33:40;19.23;;;13.63;;
47287;SDS011;33020;53.008;13.558;2023-04-15T10:36:08;20.13;;;15.05;;
47287;SDS011;33020;53.008;13.558;2023-04-15T10:38:39;17.67;;;13.80;;
47287;SDS011;33020;53.008;13.558;2023-04-15T10:41:20;19.42;;;14.40;;
47287;SDS011;33020;53.008;13.558;2023-04-15T10:43:52;19.10;;;14.65;;
47287;SDS011;33020;53.008;13.558;2023-04-15T10:46:24;17.75;;;13.80;;
47287;SDS011;33020;53.008;13.558;2023-04-15T10:49:14;18.73;;;14.02;;
47287;SDS011;33020;53.008;13.558;2023-04-15T10:51:46;17.38;;;13.63;;
47287;SDS011;33020;53.008;13.558;2023-04-15T10:56:50;19.80;;;12.75;;
47287;SDS011;33020;53.008;13.558;2023-04-15T10:59:17;17.75;;;13.88;;
47287;SDS011;33020;53.008;13.558;2023-04-15T11:01:53;16.08;;;12.85;;
47287;SDS011;33020;53.008;13.558;2023-04-15T11:07:46;17.17;;;13.77;;
47287;SDS011;33020;53.008;13.558;2023-04-15T11:13:36;17.27;;;12.93;;
47287;SDS011;33020;53.008;13.558;2023-04-15T11:15:38;17.35;;;13.23;;
47287;SDS011;33020;53.008;13.558;2023-04-15T11:18:19;17.52;;;13.35;;
47287;SDS011;33020;53.008;13.558;2023-04-15T11:20:48;15.82;;;12.82;;
47287;SDS011;33020;53.008;13.558;2023-04-15T11:23:17;17.42;;;12.70;;
47287;SDS011;33020;53.008;13.558;2023-04-15T11:25:45;17.20;;;13.13;;
47287;SDS011;33020;53.008;13.558;2023-04-15T11:28:13;17.65;;;14.05;;
47287;SDS011;33020;53.008;13.558;2023-04-15T11:30:40;18.27;;;14.43;;
47287;SDS011;33020;53.008;13.558;2023-04-15T11:33:08;18.88;;;13.93;;
47287;SDS011;33020;53.008;13.558;2023-04-15T11:35:41;15.90;;;12.68;;
47287;SDS011;33020;53.008;13.558;2023-04-15T11:38:09;17.00;;;13.00;;
47287;SDS011;33020;53.008;13.558;2023-04-15T11:40:40;18.05;;;13.77;;
47287;SDS011;33020;53.008;13.558;2023-04-15T11:43:12;16.17;;;12.25;;
47287;SDS011;33020;53.008;13.558;2023-04-15T11:45:51;14.68;;;12.25;;
47287;SDS011;33020;53.008;13.558;2023-04-15T11:48:23;17.50;;;11.75;;
47287;SDS011;33020;53.008;13.558;2023-04-15T11:50:55;15.98;;;11.45;;
47287;SDS011;33020;53.008;13.558;2023-04-15T11:53:24;15.57;;;11.15;;
47287;SDS011;33020;53.008;13.558;2023-04-15T11:56:02;14.70;;;11.52;;
47287;SDS011;33020;53.008;13.558;2023-04-15T11:58:29;16.42;;;12.70;;
47287;SDS011;33020;53.008;13.558;2023-04-15T12:00:57;16.00;;;12.15;;
47287;SDS011;33020;53.008;13.558;2023-04-15T12:03:26;16.60;;;12.75;;
47287;SDS011;33020;53.008;13.558;2023-04-15T12:09:02;16.15;;;11.70;;
47287;SDS011;33020;53.008;13.558;2023-04-15T12:11:49;14.50;;;11.48;;
47287;SDS011;33020;53.008;13.558;2023-04-15T12:14:31;14.10;;;10.45;;
47287;SDS011;33020;53.008;13.558;2023-04-15T12:16:59;15.75;;;11.32;;
47287;SDS011;33020;53.008;13.558;2023-04-15T12:19:34;16.10;;;11.70;;
47287;SDS011;33020;53.008;13.558;2023-04-15T12:22:07;13.10;;;10.48;;
47287;SDS011;33020;53.008;13.558;2023-04-15T12:24:36;13.05;;;9.65;;
47287;SDS011;33020;53.008;13.558;2023-04-15T12:27:05;14.30;;;10.95;;
47287;SDS011;33020;53.008;13.558;2023-04-15T12:29:36;14.32;;;10.68;;
47287;SDS011;33020;53.008;13.558;2023-04-15T12:32:13;11.85;;;8.98;;
47287;SDS011;33020;53.008;13.558;2023-04-15T12:34:42;12.85;;;9.68;;
47287;SDS011;33020;53.008;13.558;2023-04-15T12:37:10;13.98;;;10.07;;
47287;SDS011;33020;53.008;13.558;2023-04-15T12:39:40;14.07;;;10.20;;
47287;SDS011;33020;53.008;13.558;2023-04-15T12:42:08;14.65;;;11.38;;
47287;SDS011;33020;53.008;13.558;2023-04-15T12:44:35;14.23;;;10.43;;
47287;SDS011;33020;53.008;13.558;2023-04-15T12:47:03;13.27;;;10.90;;
47287;SDS011;33020;53.008;13.558;2023-04-15T12:49:30;13.85;;;10.30;;
47287;SDS011;33020;53.008;13.558;2023-04-15T12:52:00;13.32;;;10.23;;
47287;SDS011;33020;53.008;13.558;2023-04-15T12:54:28;13.60;;;10.65;;
47287;SDS011;33020;53.008;13.558;2023-04-15T12:56:56;16.95;;;12.20;;
47287;SDS011;33020;53.008;13.558;2023-04-15T12:59:23;13.80;;;10.52;;
47287;SDS011;33020;53.008;13.558;2023-04-15T13:01:50;16.67;;;10.75;;
47287;SDS011;33020;53.008;13.558;2023-04-15T13:04:19;12.05;;;9.88;;
47287;SDS011;33020;53.008;13.558;2023-04-15T13:06:46;12.57;;;9.80;;
47287;SDS011;33020;53.008;13.558;2023-04-15T13:09:13;15.25;;;11.43;;
47287;SDS011;33020;53.008;13.558;2023-04-15T13:11:40;15.10;;;10.98;;
47287;SDS011;33020;53.008;13.558;2023-04-15T13:14:07;11.20;;;9.77;;
47287;SDS011;33020;53.008;13.558;2023-04-15T13:16:34;13.35;;;9.80;;
47287;SDS011;33020;53.008;13.558;2023-04-15T13:19:01;15.07;;;10.65;;
47287;SDS011;33020;53.008;13.558;2023-04-15T13:21:29;12.77;;;10.02;;
47287;SDS011;33020;53.008;13.558;2023-04-15T13:23:57;15.25;;;11.18;;
47287;SDS011;33020;53.008;13.558;2023-04-15T13:26:25;13.30;;;11.43;;
47287;SDS011;33020;53.008;13.558;2023-04-15T13:28:51;12.85;;;10.57;;
47287;SDS011;33020;53.008;13.558;2023-04-15T13:31:18;12.68;;;10.57;;
47287;SDS011;33020;53.008;13.558;2023-04-15T13:33:45;13.52;;;10.18;;
47287;SDS011;33020;53.008;13.558;2023-04-15T13:36:12;16.30;;;11.20;;
47287;SDS011;33020;53.008;13.558;2023-04-15T13:38:38;14.93;;;10.57;;
47287;SDS011;33020;53.008;13.558;2023-04-15T13:41:05;15.63;;;11.30;;
47287;SDS011;33020;53.008;13.558;2023-04-15T13:43:32;15.02;;;11.43;;
47287;SDS011;33020;53.008;13.558;2023-04-15T13:45:59;15.15;;;11.32;;
47287;SDS011;33020;53.008;13.558;2023-04-15T13:48:27;15.13;;;12.35;;
47287;SDS011;33020;53.008;13.558;2023-04-15T13:50:54;15.63;;;11.98;;
47287;SDS011;33020;53.008;13.558;2023-04-15T13:53:20;16.33;;;12.68;;
47287;SDS011;33020;53.008;13.558;2023-04-15T13:56:07;18.83;;;13.10;;
47287;SDS011;33020;53.008;13.558;2023-04-15T13:58:35;15.48;;;11.95;;
47287;SDS011;33020;53.008;13.558;2023-04-15T14:01:03;18.35;;;12.65;;
47287;SDS011;33020;53.008;13.558;2023-04-15T14:03:31;16.30;;;12.68;;
47287;SDS011;33020;53.008;13.558;2023-04-15T14:05:59;18.48;;;12.85;;
47287;SDS011;33020;53.008;13.558;2023-04-15T14:08:26;16.98;;;12.75;;
47287;SDS011;33020;53.008;13.558;2023-04-15T14:10:53;20.10;;;13.13;;
47287;SDS011;33020;53.008;13.558;2023-04-15T14:13:19;17.90;;;13.23;;
47287;SDS011;33020;53.008;13.558;2023-04-15T14:15:46;16.73;;;12.43;;
47287;SDS011;33020;53.008;13.558;2023-04-15T14:18:13;18.05;;;14.50;;
47287;SDS011;33020;53.008;13.558;2023-04-15T14:20:40;21.95;;;14.05;;
47287;SDS011;33020;53.008;13.558;2023-04-15T14:23:06;16.88;;;13.48;;
47287;SDS011;33020;53.008;13.558;2023-04-15T14:25:33;22.30;;;16.88;;
47287;SDS011;33020;53.008;13.558;2023-04-15T14:48:15;25.50;;;14.30;;
47287;SDS011;33020;53.008;13.558;2023-04-15T14:50:42;19.67;;;14.95;;